Time;durP1;ratioP1;P1;durP2;ratioP2;P2;SDS_P1;SDS_P2;PMS_P1;PMS_P2;Temp;Humidity;BMP_temperature;BMP_pressure;BME280_temperature;BME280_humidity;BME280_pressure;Samples;Min_cycle;Max_cycle;Signal;HPM_P1;HPM_P2
2024/02/22 00:00:04;;;;;;;10.87;4.90;;;;;;;;;;4970276;28;20328;-85
2024/02/22 00:02:38;;;;;;;9.37;4.47;;;;;;;;;;4984156;28;20208;-84
2024/02/22 00:05:04;;;;;;;7.30;4.30;;;;;;;;;;5018405;28;20228;-86
2024/02/22 00:07:30;;;;;;;12.10;4.87;;;;;;;;;;4974370;28;20220;-84
2024/02/22 00:09:59;;;;;;;7.70;4.63;;;;;;;;;;4986872;28;20231;-85
2024/02/22 00:12:24;;;;;;;8.83;4.47;;;;;;;;;;4981695;28;20712;-83
2024/02/22 00:14:51;;;;;;;9.63;4.70;;;;;;;;;;4965710;28;20221;-83
2024/02/22 00:17:21;;;;;;;6.33;4.53;;;;;;;;;;4984183;28;20217;-85
2024/02/22 00:19:46;;;;;;;9.53;4.43;;;;;;;;;;4980439;28;20224;-88
2024/02/22 00:22:12;;;;;;;9.50;4.57;;;;;;;;;;4981622;28;20278;-85
2024/02/22 00:24:38;;;;;;;10.30;4.97;;;;;;;;;;4997474;28;20215;-85
2024/02/22 00:27:06;;;;;;;8.40;4.97;;;;;;;;;;4980172;28;20275;-86
2024/02/22 00:29:31;;;;;;;8.80;4.97;;;;;;;;;;4995912;28;20259;-85
2024/02/22 00:31:59;;;;;;;8.53;4.87;;;;;;;;;;4995968;28;20596;-86
2024/02/22 00:34:25;;;;;;;9.07;5.17;;;;;;;;;;4979356;28;20220;-85
2024/02/22 00:36:55;;;;;;;10.10;4.97;;;;;;;;;;4978886;28;20224;-85
2024/02/22 00:39:20;;;;;;;8.27;5.00;;;;;;;;;;4996177;28;20235;-86
2024/02/22 00:41:48;;;;;;;9.87;5.20;;;;;;;;;;4979598;28;20609;-85
2024/02/22 00:44:14;;;;;;;9.27;5.30;;;;;;;;;;4996744;28;20217;-84
2024/02/22 00:46:39;;;;;;;10.33;5.40;;;;;;;;;;4997493;28;20675;-85
2024/02/22 00:49:08;;;;;;;9.90;5.50;;;;;;;;;;4981194;28;20232;-86
2024/02/22 00:51:35;;;;;;;11.97;5.50;;;;;;;;;;4989839;28;20243;-85
2024/02/22 00:54:01;;;;;;;10.63;5.80;;;;;;;;;;4996716;28;20308;-85
2024/02/22 00:56:28;;;;;;;10.43;5.20;;;;;;;;;;4981752;28;20217;-85
2024/02/22 00:58:55;;;;;;;11.17;5.47;;;;;;;;;;4994098;28;20212;-85
2024/02/22 01:01:21;;;;;;;10.77;5.93;;;;;;;;;;4994199;28;20256;-85
2024/02/22 01:03:48;;;;;;;9.93;5.20;;;;;;;;;;4996085;28;20225;-85
2024/02/22 01:06:14;;;;;;;8.63;5.00;;;;;;;;;;4995306;28;20221;-86
2024/02/22 01:08:40;;;;;;;9.77;5.33;;;;;;;;;;4992666;28;20224;-85
2024/02/22 01:11:08;;;;;;;9.63;5.20;;;;;;;;;;4997442;28;20217;-85
2024/02/22 01:13:33;;;;;;;13.27;5.93;;;;;;;;;;4980885;28;20217;-85
2024/02/22 01:16:01;;;;;;;10.00;6.00;;;;;;;;;;4995435;28;21206;-85
2024/02/22 01:18:29;;;;;;;11.37;6.03;;;;;;;;;;5011361;28;20224;-85
2024/02/22 01:20:57;;;;;;;12.00;5.90;;;;;;;;;;4982731;28;20229;-85
2024/02/22 01:23:23;;;;;;;12.47;6.27;;;;;;;;;;4997510;28;20223;-84
2024/02/22 01:25:49;;;;;;;11.83;5.97;;;;;;;;;;4978452;28;20221;-86
2024/02/22 01:28:14;;;;;;;7.97;6.33;;;;;;;;;;4996078;28;20717;-85
2024/02/22 01:30:40;;;;;;;9.60;6.17;;;;;;;;;;4981834;28;20244;-84
2024/02/22 01:33:08;;;;;;;11.73;6.10;;;;;;;;;;4996520;28;20225;-84
2024/02/22 01:35:35;;;;;;;10.20;6.27;;;;;;;;;;5011722;28;20228;-83
2024/02/22 01:38:01;;;;;;;10.90;6.57;;;;;;;;;;4980138;28;20223;-84
2024/02/22 01:40:26;;;;;;;11.77;6.43;;;;;;;;;;4994073;28;20311;-84
2024/02/22 01:42:53;;;;;;;9.30;6.40;;;;;;;;;;4963972;28;20227;-84
2024/02/22 01:45:21;;;;;;;13.20;7.00;;;;;;;;;;5012532;28;20216;-85
2024/02/22 01:47:46;;;;;;;12.20;6.57;;;;;;;;;;5011750;28;20221;-84
2024/02/22 01:50:19;;;;;;;9.33;6.20;;;;;;;;;;4992824;28;20225;-83
2024/02/22 01:52:44;;;;;;;10.90;6.67;;;;;;;;;;4992164;28;20291;-84
2024/02/22 01:55:13;;;;;;;11.43;7.03;;;;;;;;;;5004799;28;20554;-85
2024/02/22 01:57:41;;;;;;;12.37;7.73;;;;;;;;;;4995768;28;20209;-83
2024/02/22 02:00:17;;;;;;;11.03;7.53;;;;;;;;;;5006311;28;20221;-87
2024/02/22 02:02:47;;;;;;;12.37;7.40;;;;;;;;;;4999090;28;20217;-85
2024/02/22 02:05:13;;;;;;;11.73;7.37;;;;;;;;;;5026326;28;20229;-86
2024/02/22 02:07:40;;;;;;;13.50;7.90;;;;;;;;;;4997776;28;20276;-88
2024/02/22 02:10:08;;;;;;;10.33;7.73;;;;;;;;;;4995909;28;20263;-85
2024/02/22 02:12:37;;;;;;;12.37;7.60;;;;;;;;;;5001240;28;20316;-85
2024/02/22 02:15:07;;;;;;;12.80;8.37;;;;;;;;;;4968559;28;20678;-84
2024/02/22 02:17:33;;;;;;;13.47;8.03;;;;;;;;;;4995185;28;20566;-86
2024/02/22 02:20:03;;;;;;;11.73;7.77;;;;;;;;;;4996102;28;20632;-83
2024/02/22 02:22:48;;;;;;;10.93;7.93;;;;;;;;;;4980157;28;20233;-84
2024/02/22 02:25:14;;;;;;;14.13;8.37;;;;;;;;;;4993213;28;20229;-83
2024/02/22 02:27:39;;;;;;;13.70;8.40;;;;;;;;;;4995455;28;20220;-84
2024/02/22 02:30:05;;;;;;;13.40;8.53;;;;;;;;;;5001422;28;20310;-85
2024/02/22 02:32:31;;;;;;;13.17;8.67;;;;;;;;;;4996429;28;20247;-83
2024/02/22 02:34:56;;;;;;;13.63;8.53;;;;;;;;;;4980617;28;20212;-86
2024/02/22 02:37:25;;;;;;;10.43;8.37;;;;;;;;;;4980156;28;20220;-84
2024/02/22 02:39:52;;;;;;;9.23;8.07;;;;;;;;;;4981382;28;20232;-83
2024/02/22 02:42:20;;;;;;;14.23;8.90;;;;;;;;;;4994182;28;20228;-85
2024/02/22 02:44:46;;;;;;;12.57;8.53;;;;;;;;;;4963938;28;20227;-84
2024/02/22 02:47:12;;;;;;;11.40;9.00;;;;;;;;;;4996063;28;20235;-84
2024/02/22 02:49:38;;;;;;;14.97;9.00;;;;;;;;;;4995425;28;20239;-83
2024/02/22 02:52:04;;;;;;;10.70;8.67;;;;;;;;;;4977682;28;20212;-83
2024/02/22 02:54:31;;;;;;;11.10;8.40;;;;;;;;;;5011148;28;20220;-82
2024/02/22 02:56:57;;;;;;;13.07;8.80;;;;;;;;;;4992718;28;20292;-83
2024/02/22 02:59:26;;;;;;;12.07;8.47;;;;;;;;;;5009480;28;20256;-83
2024/02/22 03:01:56;;;;;;;11.60;8.20;;;;;;;;;;4979728;28;20326;-85
2024/02/22 03:04:22;;;;;;;11.30;7.23;;;;;;;;;;4979098;28;20348;-84
2024/02/22 03:06:47;;;;;;;12.60;7.50;;;;;;;;;;4979662;28;20706;-84
2024/02/22 03:09:13;;;;;;;11.53;7.70;;;;;;;;;;4990700;28;20275;-83
2024/02/22 03:11:41;;;;;;;9.07;7.67;;;;;;;;;;4996262;28;21768;-84
2024/02/22 03:14:09;;;;;;;9.27;7.73;;;;;;;;;;4992647;28;20613;-83
2024/02/22 03:16:37;;;;;;;9.53;7.43;;;;;;;;;;5010196;28;20231;-82
2024/02/22 03:19:07;;;;;;;10.20;7.83;;;;;;;;;;4978778;28;20224;-84
2024/02/22 03:21:33;;;;;;;10.10;7.00;;;;;;;;;;4991868;28;20224;-84
2024/02/22 03:23:58;;;;;;;9.03;7.50;;;;;;;;;;4978430;28;20228;-84
2024/02/22 03:26:24;;;;;;;9.30;7.30;;;;;;;;;;4996075;28;20246;-86
2024/02/22 03:28:52;;;;;;;7.83;7.00;;;;;;;;;;5000684;28;20233;-83
2024/02/22 03:31:18;;;;;;;9.17;7.07;;;;;;;;;;4997699;28;20229;-84
2024/02/22 03:33:48;;;;;;;8.40;6.93;;;;;;;;;;4983194;28;20629;-84
2024/02/22 03:36:16;;;;;;;9.23;7.03;;;;;;;;;;4999680;28;20220;-84
2024/02/22 03:38:42;;;;;;;7.40;6.70;;;;;;;;;;4998908;28;20708;-84
2024/02/22 03:41:07;;;;;;;8.33;7.00;;;;;;;;;;4979667;28;20225;-82
2024/02/22 03:43:37;;;;;;;7.47;6.40;;;;;;;;;;4984719;28;20225;-82
2024/02/22 03:46:07;;;;;;;9.17;7.13;;;;;;;;;;4999161;28;20221;-86
2024/02/22 03:48:33;;;;;;;7.03;6.33;;;;;;;;;;4977297;28;20245;-83
2024/02/22 03:50:58;;;;;;;8.93;6.17;;;;;;;;;;4980011;28;20216;-83
2024/02/22 03:53:29;;;;;;;7.43;6.40;;;;;;;;;;4996014;28;20217;-83
2024/02/22 03:55:54;;;;;;;7.83;5.80;;;;;;;;;;4980855;28;20267;-84
2024/02/22 04:02:07;;;;;;;8.30;5.63;;;;;;;;;;5008979;28;20254;-83
2024/02/22 04:04:32;;;;;;;6.57;5.30;;;;;;;;;;4978759;28;20224;-84
2024/02/22 04:06:58;;;;;;;6.03;5.40;;;;;;;;;;4996018;28;20231;-83
2024/02/22 04:09:24;;;;;;;6.27;5.67;;;;;;;;;;5004623;28;20819;-82
2024/02/22 04:11:49;;;;;;;7.63;5.10;;;;;;;;;;4977789;28;20221;-84
2024/02/22 04:14:17;;;;;;;5.87;5.03;;;;;;;;;;4979864;28;20213;-84
2024/02/22 04:16:45;;;;;;;5.43;4.80;;;;;;;;;;4981747;28;20231;-82
2024/02/22 04:19:10;;;;;;;4.90;4.40;;;;;;;;;;4978754;28;20852;-84
2024/02/22 04:21:41;;;;;;;4.60;4.20;;;;;;;;;;5012161;28;20232;-84
2024/02/22 04:24:07;;;;;;;4.83;4.40;;;;;;;;;;4982032;28;20232;-86
2024/02/22 04:26:37;;;;;;;4.83;4.37;;;;;;;;;;4964755;28;20213;-84
2024/02/22 04:29:05;;;;;;;4.57;4.17;;;;;;;;;;4981509;28;20247;-82
2024/02/22 04:31:33;;;;;;;4.67;3.97;;;;;;;;;;4968304;28;20224;-78
2024/02/22 04:33:59;;;;;;;4.30;3.90;;;;;;;;;;5002984;28;20235;-77
2024/02/22 04:36:24;;;;;;;5.00;4.03;;;;;;;;;;5015589;28;20221;-79
2024/02/22 04:38:50;;;;;;;4.03;3.57;;;;;;;;;;4994477;28;20221;-81
2024/02/22 04:41:21;;;;;;;4.27;3.87;;;;;;;;;;4994063;28;20224;-80
2024/02/22 04:43:46;;;;;;;4.13;3.70;;;;;;;;;;5007416;28;20217;-76
2024/02/22 04:46:12;;;;;;;3.70;3.40;;;;;;;;;;4993230;28;20331;-78
2024/02/22 04:48:37;;;;;;;4.20;3.30;;;;;;;;;;5008560;28;20324;-78
2024/02/22 04:51:03;;;;;;;3.50;3.20;;;;;;;;;;5009662;28;20247;-79
2024/02/22 04:53:29;;;;;;;4.37;3.10;;;;;;;;;;4993789;28;20775;-79
2024/02/22 04:55:54;;;;;;;3.87;3.33;;;;;;;;;;4962761;28;20227;-78
2024/02/22 04:58:23;;;;;;;3.17;2.90;;;;;;;;;;5008392;28;20213;-78
2024/02/22 05:00:48;;;;;;;3.03;2.73;;;;;;;;;;5010610;28;20221;-78
2024/02/22 05:03:14;;;;;;;3.10;2.80;;;;;;;;;;5009152;28;20213;-79
2024/02/22 05:05:43;;;;;;;2.73;2.53;;;;;;;;;;5008975;28;20217;-78
2024/02/22 05:08:10;;;;;;;2.60;2.40;;;;;;;;;;4978614;28;20604;-80
2024/02/22 05:10:35;;;;;;;2.67;2.47;;;;;;;;;;4992933;28;20237;-79
2024/02/22 05:13:03;;;;;;;2.50;2.30;;;;;;;;;;5010570;28;20239;-80
2024/02/22 05:15:31;;;;;;;2.40;2.20;;;;;;;;;;4978148;28;20239;-78
2024/02/22 05:17:57;;;;;;;2.33;2.13;;;;;;;;;;4992205;28;20221;-78
2024/02/22 05:20:22;;;;;;;2.53;2.33;;;;;;;;;;5008879;28;20228;-79
2024/02/22 05:22:48;;;;;;;2.83;2.10;;;;;;;;;;4993086;28;20733;-79
2024/02/22 05:25:15;;;;;;;2.17;1.97;;;;;;;;;;5008286;28;20221;-79
2024/02/22 05:27:41;;;;;;;2.30;2.17;;;;;;;;;;4993971;28;20255;-79
2024/02/22 05:30:07;;;;;;;2.10;2.00;;;;;;;;;;4976608;28;20718;-77
2024/02/22 05:32:33;;;;;;;1.77;1.67;;;;;;;;;;4993033;28;20232;-79
2024/02/22 05:35:01;;;;;;;1.77;1.67;;;;;;;;;;5010760;28;20232;-79
2024/02/22 05:37:28;;;;;;;2.00;1.90;;;;;;;;;;4957570;28;20228;-78
2024/02/22 05:39:59;;;;;;;1.73;1.63;;;;;;;;;;4977192;28;20576;-78
2024/02/22 05:42:24;;;;;;;2.23;2.03;;;;;;;;;;4996234;28;20244;-78
2024/02/22 05:44:50;;;;;;;2.73;1.80;;;;;;;;;;5026679;28;20221;-78
2024/02/22 05:47:15;;;;;;;1.87;1.77;;;;;;;;;;5007805;28;20543;-78
2024/02/22 05:49:41;;;;;;;1.90;1.80;;;;;;;;;;5007177;28;20229;-80
2024/02/22 05:52:07;;;;;;;2.07;1.97;;;;;;;;;;4992734;28;20571;-78
2024/02/22 05:54:32;;;;;;;1.83;1.73;;;;;;;;;;4993007;28;20224;-79
2024/02/22 05:56:58;;;;;;;1.60;1.50;;;;;;;;;;4976410;28;20287;-79
2024/02/22 05:59:24;;;;;;;1.57;1.47;;;;;;;;;;5007358;28;20267;-79
2024/02/22 06:01:50;;;;;;;1.87;1.50;;;;;;;;;;5009958;28;20216;-79
2024/02/22 06:04:15;;;;;;;1.47;1.37;;;;;;;;;;4992728;28;20271;-80
2024/02/22 06:06:41;;;;;;;1.70;1.60;;;;;;;;;;4992308;28;20225;-78
2024/02/22 06:09:08;;;;;;;1.93;1.73;;;;;;;;;;4976216;28;20240;-78
2024/02/22 06:11:36;;;;;;;2.40;1.80;;;;;;;;;;4979683;28;20225;-79
2024/02/22 06:14:04;;;;;;;4.83;3.30;;;;;;;;;;4977261;28;20228;-79
2024/02/22 06:16:29;;;;;;;2.00;1.90;;;;;;;;;;4993214;28;20225;-78
2024/02/22 06:18:55;;;;;;;1.93;1.70;;;;;;;;;;4979165;28;20280;-79
2024/02/22 06:21:20;;;;;;;1.43;1.33;;;;;;;;;;4995772;28;20933;-79
2024/02/22 06:23:46;;;;;;;2.10;2.00;;;;;;;;;;4994214;28;20239;-78
2024/02/22 06:26:11;;;;;;;1.63;1.53;;;;;;;;;;5010284;28;20236;-79
2024/02/22 06:28:37;;;;;;;1.97;1.70;;;;;;;;;;5010456;28;20378;-78
2024/02/22 06:31:05;;;;;;;1.70;1.60;;;;;;;;;;4978966;28;20229;-80
2024/02/22 06:33:33;;;;;;;2.10;1.90;;;;;;;;;;5012299;28;20250;-79
2024/02/22 06:35:59;;;;;;;1.97;1.70;;;;;;;;;;4979527;28;20224;-79
2024/02/22 06:38:24;;;;;;;2.47;1.70;;;;;;;;;;4995008;28;20232;-79
2024/02/22 06:40:53;;;;;;;1.83;1.73;;;;;;;;;;4978714;28;20220;-78
2024/02/22 06:43:19;;;;;;;1.90;1.80;;;;;;;;;;4996164;28;20726;-80
2024/02/22 06:45:44;;;;;;;2.50;2.30;;;;;;;;;;4995718;28;20216;-80
2024/02/22 06:48:10;;;;;;;2.27;2.07;;;;;;;;;;4994301;28;20248;-81
2024/02/22 06:50:36;;;;;;;2.13;2.03;;;;;;;;;;4993875;28;20221;-80
2024/02/22 06:53:03;;;;;;;2.37;2.17;;;;;;;;;;5009100;28;20220;-80
2024/02/22 06:55:31;;;;;;;2.87;2.67;;;;;;;;;;4995794;28;20231;-79
2024/02/22 06:57:56;;;;;;;2.50;2.30;;;;;;;;;;4996417;28;20226;-80
2024/02/22 07:00:25;;;;;;;2.33;2.23;;;;;;;;;;5011757;28;21071;-80
2024/02/22 07:02:53;;;;;;;2.40;2.30;;;;;;;;;;5019446;28;20315;-80
2024/02/22 07:05:19;;;;;;;3.40;3.20;;;;;;;;;;4984667;28;20294;-78
2024/02/22 07:07:45;;;;;;;3.10;2.90;;;;;;;;;;5001463;28;20216;-81
2024/02/22 07:10:15;;;;;;;3.60;3.30;;;;;;;;;;5017630;28;20717;-80
2024/02/22 07:12:44;;;;;;;3.43;3.23;;;;;;;;;;5002257;28;20328;-80
2024/02/22 07:15:15;;;;;;;3.47;3.27;;;;;;;;;;5002551;28;20224;-79
2024/02/22 07:17:45;;;;;;;3.30;3.10;;;;;;;;;;5014788;28;20220;-77
2024/02/22 07:20:11;;;;;;;3.67;3.37;;;;;;;;;;5001125;28;20262;-80
2024/02/22 07:22:39;;;;;;;3.87;3.57;;;;;;;;;;5002407;28;20216;-79
2024/02/22 07:25:11;;;;;;;3.97;3.67;;;;;;;;;;4989097;28;20216;-79
2024/02/22 07:27:39;;;;;;;4.40;4.00;;;;;;;;;;5002897;28;20224;-78
2024/02/22 07:30:08;;;;;;;7.10;5.33;;;;;;;;;;5017105;28;20239;-80
2024/02/22 07:32:34;;;;;;;6.07;5.47;;;;;;;;;;5018572;28;20223;-79
2024/02/22 07:35:03;;;;;;;6.40;5.50;;;;;;;;;;5002107;28;21043;-77
2024/02/22 07:37:31;;;;;;;6.83;6.23;;;;;;;;;;5002303;28;20287;-79
2024/02/22 07:39:56;;;;;;;8.10;7.40;;;;;;;;;;5001743;28;20266;-79
2024/02/22 07:42:22;;;;;;;9.03;8.23;;;;;;;;;;4995807;28;20212;-78
2024/02/22 07:44:48;;;;;;;8.70;7.80;;;;;;;;;;5033575;28;20228;-79
2024/02/22 07:47:14;;;;;;;9.33;8.33;;;;;;;;;;5016405;28;20246;-78
2024/02/22 07:49:40;;;;;;;8.93;8.13;;;;;;;;;;5032392;28;20292;-77
2024/02/22 07:52:06;;;;;;;9.73;8.73;;;;;;;;;;5015773;28;20228;-78
2024/02/22 07:54:31;;;;;;;9.53;8.63;;;;;;;;;;4999757;28;20226;-80
2024/02/22 07:57:00;;;;;;;9.77;8.77;;;;;;;;;;5014745;28;20221;-79
2024/02/22 07:59:25;;;;;;;9.87;8.90;;;;;;;;;;5000576;28;20228;-80
2024/02/22 08:01:51;;;;;;;9.87;8.87;;;;;;;;;;4983454;28;20236;-80
2024/02/22 08:04:17;;;;;;;10.80;9.23;;;;;;;;;;4999823;28;20229;-78
2024/02/22 08:06:47;;;;;;;10.07;9.10;;;;;;;;;;5000770;28;20216;-79
2024/02/22 08:09:13;;;;;;;10.33;8.80;;;;;;;;;;4984095;28;20220;-78
2024/02/22 08:11:43;;;;;;;9.90;8.90;;;;;;;;;;4982352;28;20228;-79
2024/02/22 08:14:12;;;;;;;11.00;9.17;;;;;;;;;;4993590;28;20283;-80
2024/02/22 08:16:37;;;;;;;10.57;9.47;;;;;;;;;;4994619;28;20232;-78
2024/02/22 08:19:05;;;;;;;9.83;8.67;;;;;;;;;;5011115;28;20569;-78
2024/02/22 08:21:31;;;;;;;11.17;9.47;;;;;;;;;;4996025;28;20326;-78
2024/02/22 08:23:58;;;;;;;10.33;9.27;;;;;;;;;;5013967;28;20224;-78
2024/02/22 08:26:24;;;;;;;10.23;9.10;;;;;;;;;;4996753;28;20224;-78
2024/02/22 08:28:50;;;;;;;9.30;8.30;;;;;;;;;;4994976;28;20316;-80
2024/02/22 08:31:15;;;;;;;10.13;8.13;;;;;;;;;;5011855;28;20233;-78
2024/02/22 08:33:43;;;;;;;8.53;7.73;;;;;;;;;;4981566;28;20229;-80
2024/02/22 08:36:09;;;;;;;8.53;7.73;;;;;;;;;;4997664;28;20216;-77
2024/02/22 08:38:34;;;;;;;8.33;7.53;;;;;;;;;;4994275;28;20279;-77
2024/02/22 08:41:04;;;;;;;7.60;6.90;;;;;;;;;;5012929;28;20228;-79
2024/02/22 08:43:30;;;;;;;7.60;6.90;;;;;;;;;;4996341;28;20292;-78
2024/02/22 08:45:57;;;;;;;8.57;6.50;;;;;;;;;;5012626;28;20280;-77
2024/02/22 08:48:22;;;;;;;7.40;6.50;;;;;;;;;;4980647;28;20225;-78
2024/02/22 08:50:48;;;;;;;7.13;6.40;;;;;;;;;;4997177;28;20236;-77
2024/02/22 08:53:13;;;;;;;7.33;5.93;;;;;;;;;;4995890;28;20212;-79
2024/02/22 08:55:42;;;;;;;6.93;6.27;;;;;;;;;;4995204;28;20225;-78
2024/02/22 08:58:07;;;;;;;7.30;6.60;;;;;;;;;;5011439;28;20223;-79
2024/02/22 09:00:33;;;;;;;7.57;6.50;;;;;;;;;;4996108;28;20224;-80
2024/02/22 09:02:58;;;;;;;7.43;6.63;;;;;;;;;;5012041;28;20221;-79
2024/02/22 09:05:26;;;;;;;7.40;6.70;;;;;;;;;;4995955;28;20584;-78
2024/02/22 09:07:54;;;;;;;8.07;7.00;;;;;;;;;;4995418;28;20252;-79
2024/02/22 09:10:23;;;;;;;8.37;7.23;;;;;;;;;;4978629;28;20275;-81
2024/02/22 09:12:48;;;;;;;10.03;8.10;;;;;;;;;;4980397;28;20336;-79
2024/02/22 09:15:16;;;;;;;10.43;9.30;;;;;;;;;;5002998;28;20714;-80
2024/02/22 09:17:42;;;;;;;11.57;9.23;;;;;;;;;;5004140;28;20244;-80
2024/02/22 09:20:07;;;;;;;13.57;10.80;;;;;;;;;;5000840;28;20602;-79
2024/02/22 09:22:33;;;;;;;13.13;10.70;;;;;;;;;;4981310;28;20721;-80
2024/02/22 09:24:59;;;;;;;14.70;11.07;;;;;;;;;;4983421;28;20331;-77
2024/02/22 09:27:29;;;;;;;15.07;12.10;;;;;;;;;;5015663;28;20223;-80
2024/02/22 09:29:58;;;;;;;16.87;12.93;;;;;;;;;;5014965;28;20240;-80
2024/02/22 09:32:23;;;;;;;19.20;13.33;;;;;;;;;;5000488;28;20240;-79
2024/02/22 09:34:52;;;;;;;22.57;15.07;;;;;;;;;;4982892;28;20221;-78
2024/02/22 09:37:20;;;;;;;22.07;15.13;;;;;;;;;;4998826;28;20224;-78
2024/02/22 09:39:48;;;;;;;22.40;15.70;;;;;;;;;;4998051;28;20228;-79
2024/02/22 09:42:16;;;;;;;23.30;16.23;;;;;;;;;;4983137;28;20240;-79
2024/02/22 09:44:42;;;;;;;23.53;15.97;;;;;;;;;;5015418;28;20607;-78
2024/02/22 09:47:08;;;;;;;22.40;16.10;;;;;;;;;;4998969;28;20217;-80
2024/02/22 09:49:34;;;;;;;22.53;15.77;;;;;;;;;;5013430;28;20220;-79
2024/02/22 09:52:01;;;;;;;24.50;16.90;;;;;;;;;;4983479;28;20216;-79
2024/02/22 09:54:29;;;;;;;24.03;16.60;;;;;;;;;;4999271;28;20244;-79
2024/02/22 09:56:55;;;;;;;26.63;18.17;;;;;;;;;;4999990;28;20640;-80
2024/02/22 09:59:21;;;;;;;24.03;17.37;;;;;;;;;;5014786;28;21048;-79
2024/02/22 10:01:50;;;;;;;26.67;17.17;;;;;;;;;;5013100;28;20224;-80
2024/02/22 10:04:19;;;;;;;25.03;17.97;;;;;;;;;;4998865;28;20255;-80
2024/02/22 10:06:46;;;;;;;25.00;17.90;;;;;;;;;;5001316;28;20247;-79
2024/02/22 10:09:11;;;;;;;25.63;17.40;;;;;;;;;;5013306;28;20233;-80
2024/02/22 10:11:43;;;;;;;25.33;19.30;;;;;;;;;;5015101;28;20250;-79
2024/02/22 10:14:13;;;;;;;24.77;17.77;;;;;;;;;;5000183;28;20216;-79
2024/02/22 10:16:41;;;;;;;23.90;18.57;;;;;;;;;;5032622;28;20220;-79
2024/02/22 10:19:07;;;;;;;26.30;19.10;;;;;;;;;;5013582;28;20216;-79
2024/02/22 10:21:32;;;;;;;24.43;18.70;;;;;;;;;;5003576;28;20239;-78
2024/02/22 10:24:00;;;;;;;25.83;18.27;;;;;;;;;;5017610;28;20247;-79
2024/02/22 10:26:26;;;;;;;27.57;19.53;;;;;;;;;;4988035;28;20231;-79
2024/02/22 10:29:09;;;;;;;28.93;20.37;;;;;;;;;;5018145;28;20228;-79
2024/02/22 10:31:47;;;;;;;31.13;20.40;;;;;;;;;;5005247;28;20228;-79
2024/02/22 10:34:13;;;;;;;30.30;20.83;;;;;;;;;;5018080;28;20219;-78
2024/02/22 10:36:39;;;;;;;27.13;20.03;;;;;;;;;;5015477;28;20217;-80
2024/02/22 10:39:04;;;;;;;29.67;20.83;;;;;;;;;;4999991;28;20686;-79
2024/02/22 10:41:30;;;;;;;28.90;20.60;;;;;;;;;;5015075;28;20230;-78
2024/02/22 10:43:58;;;;;;;30.53;21.03;;;;;;;;;;4998086;28;20250;-79
2024/02/22 10:46:27;;;;;;;30.03;21.10;;;;;;;;;;4999586;28;20615;-80
2024/02/22 10:48:52;;;;;;;28.37;20.70;;;;;;;;;;4998109;28;20229;-79
2024/02/22 10:51:19;;;;;;;27.57;20.57;;;;;;;;;;4983226;28;20267;-80
2024/02/22 10:53:44;;;;;;;25.53;19.80;;;;;;;;;;4982506;28;20225;-79
2024/02/22 10:56:14;;;;;;;26.30;20.87;;;;;;;;;;4982290;28;20222;-78
2024/02/22 10:58:40;;;;;;;27.20;20.00;;;;;;;;;;5015043;28;20228;-80
2024/02/22 11:01:10;;;;;;;27.53;20.00;;;;;;;;;;4998530;28;20220;-79
2024/02/22 11:03:36;;;;;;;23.57;19.07;;;;;;;;;;4984081;28;20281;-79
2024/02/22 11:06:03;;;;;;;26.83;19.90;;;;;;;;;;5014187;28;20221;-78
2024/02/22 11:08:31;;;;;;;26.50;20.63;;;;;;;;;;4995451;28;20236;-78
2024/02/22 11:11:06;;;;;;;24.23;19.43;;;;;;;;;;4993373;28;20221;-78
2024/02/22 11:13:33;;;;;;;21.47;18.60;;;;;;;;;;4998274;28;20227;-78
2024/02/22 11:15:58;;;;;;;20.07;17.37;;;;;;;;;;5013170;28;20236;-79
2024/02/22 11:18:24;;;;;;;21.23;18.17;;;;;;;;;;4965137;28;20220;-78
2024/02/22 11:20:52;;;;;;;19.27;16.90;;;;;;;;;;5014245;28;20701;-79
2024/02/22 11:23:18;;;;;;;17.70;15.43;;;;;;;;;;5012981;28;20220;-78
2024/02/22 11:25:46;;;;;;;20.67;15.90;;;;;;;;;;4980177;28;20239;-79
2024/02/22 11:28:13;;;;;;;18.30;16.20;;;;;;;;;;5014342;28;20216;-78
2024/02/22 11:30:40;;;;;;;16.70;14.73;;;;;;;;;;4998931;28;20280;-78
2024/02/22 11:33:07;;;;;;;16.87;15.03;;;;;;;;;;4980683;28;20244;-79
2024/02/22 11:35:33;;;;;;;17.27;14.40;;;;;;;;;;5012917;28;20327;-79
2024/02/22 11:38:05;;;;;;;15.20;13.53;;;;;;;;;;4997070;28;20614;-78
2024/02/22 11:40:34;;;;;;;15.47;13.47;;;;;;;;;;4997017;28;20271;-79
2024/02/22 11:43:02;;;;;;;15.07;13.53;;;;;;;;;;5013308;28;20315;-78
2024/02/22 11:45:34;;;;;;;13.63;12.20;;;;;;;;;;4993391;28;20282;-79
2024/02/22 11:48:00;;;;;;;13.30;11.90;;;;;;;;;;4996985;28;20225;-78
2024/02/22 11:50:27;;;;;;;14.37;12.40;;;;;;;;;;5030740;28;20232;-79
2024/02/22 11:52:55;;;;;;;12.43;11.10;;;;;;;;;;5016460;28;20220;-79
2024/02/22 11:55:25;;;;;;;11.77;10.33;;;;;;;;;;4997035;28;20267;-79
2024/02/22 11:57:52;;;;;;;13.07;10.33;;;;;;;;;;5014033;28;20264;-80
2024/02/22 12:00:19;;;;;;;12.17;9.90;;;;;;;;;;4997046;28;20252;-79
2024/02/22 12:02:49;;;;;;;11.50;10.30;;;;;;;;;;5000033;28;20721;-80
2024/02/22 12:05:17;;;;;;;10.57;9.47;;;;;;;;;;4982835;28;20224;-80
2024/02/22 12:07:45;;;;;;;10.50;9.50;;;;;;;;;;4999296;28;20274;-79
2024/02/22 12:10:11;;;;;;;9.33;8.27;;;;;;;;;;4997898;28;20241;-79
2024/02/22 12:12:39;;;;;;;9.77;8.87;;;;;;;;;;4986481;28;20224;-79
2024/02/22 12:15:05;;;;;;;9.67;8.40;;;;;;;;;;5014434;28;20221;-79
2024/02/22 12:17:31;;;;;;;9.03;8.00;;;;;;;;;;5015886;28;20223;-78
2024/02/22 12:19:57;;;;;;;8.40;7.60;;;;;;;;;;5016327;28;20228;-78
2024/02/22 12:22:34;;;;;;;11.10;7.40;;;;;;;;;;4982594;28;20224;-79
2024/02/22 12:25:02;;;;;;;7.77;6.97;;;;;;;;;;4997415;28;20756;-79
2024/02/22 12:27:28;;;;;;;7.83;6.70;;;;;;;;;;4995779;28;20231;-79
2024/02/22 12:29:58;;;;;;;9.00;6.77;;;;;;;;;;5013813;28;20737;-78
2024/02/22 12:32:23;;;;;;;7.67;6.40;;;;;;;;;;5010656;28;20230;-78
2024/02/22 12:34:52;;;;;;;6.70;6.07;;;;;;;;;;4995933;28;20224;-78
2024/02/22 12:37:18;;;;;;;6.27;5.67;;;;;;;;;;4992861;28;20213;-77
2024/02/22 12:39:49;;;;;;;6.03;5.43;;;;;;;;;;4994686;28;20228;-78
2024/02/22 12:42:15;;;;;;;5.67;5.17;;;;;;;;;;4979573;28;20225;-78
2024/02/22 12:44:40;;;;;;;5.73;5.13;;;;;;;;;;4995694;28;20228;-79
2024/02/22 12:47:11;;;;;;;5.60;5.10;;;;;;;;;;4993422;28;20229;-78
2024/02/22 12:49:38;;;;;;;6.20;5.10;;;;;;;;;;5024675;28;20316;-78
2024/02/22 12:52:10;;;;;;;6.10;4.80;;;;;;;;;;4994073;28;20220;-79
2024/02/22 12:54:35;;;;;;;5.30;4.80;;;;;;;;;;4981146;28;20225;-79
2024/02/22 12:57:01;;;;;;;5.63;5.10;;;;;;;;;;5014722;28;20233;-78
2024/02/22 12:59:27;;;;;;;5.57;4.87;;;;;;;;;;5009165;28;20225;-78
2024/02/22 13:01:52;;;;;;;5.70;4.77;;;;;;;;;;4995224;28;20216;-78
2024/02/22 13:04:18;;;;;;;5.83;4.60;;;;;;;;;;5010556;28;20256;-79
2024/02/22 13:06:43;;;;;;;5.23;4.67;;;;;;;;;;4995410;28;20240;-78
2024/02/22 13:09:13;;;;;;;4.67;4.17;;;;;;;;;;5009874;28;20221;-78
2024/02/22 13:11:41;;;;;;;5.80;4.67;;;;;;;;;;5010081;28;20225;-78
2024/02/22 13:14:07;;;;;;;4.90;4.10;;;;;;;;;;4994662;28;20229;-78
2024/02/22 13:16:34;;;;;;;4.43;3.95;;;;;;;;;;5011738;28;20240;-78
2024/02/22 13:18:59;;;;;;;4.33;3.83;;;;;;;;;;4978201;28;20220;-79
2024/02/22 13:21:25;;;;;;;5.10;3.10;;;;;;;;;;5008278;28;20238;-78
2024/02/22 13:23:53;;;;;;;2.63;2.43;;;;;;;;;;5011219;28;21137;-78
2024/02/22 13:26:21;;;;;;;4.33;2.37;;;;;;;;;;5009649;28;20227;-77
2024/02/22 13:28:47;;;;;;;3.63;2.40;;;;;;;;;;5005362;28;20283;-80
2024/02/22 13:31:12;;;;;;;2.30;2.10;;;;;;;;;;5008951;28;20224;-78
2024/02/22 13:33:39;;;;;;;4.07;2.07;;;;;;;;;;4962489;28;20230;-78
2024/02/22 13:36:05;;;;;;;2.10;1.90;;;;;;;;;;4993102;28;20327;-78
2024/02/22 13:38:32;;;;;;;1.73;1.63;;;;;;;;;;5007627;28;20259;-78
2024/02/22 13:41:00;;;;;;;1.97;1.57;;;;;;;;;;5009512;28;20217;-77
2024/02/22 13:43:28;;;;;;;2.47;1.70;;;;;;;;;;4987499;28;20220;-77
2024/02/22 13:45:54;;;;;;;1.50;1.40;;;;;;;;;;5007020;28;20225;-78
2024/02/22 13:48:20;;;;;;;1.50;1.40;;;;;;;;;;5008361;28;20593;-78
2024/02/22 13:50:48;;;;;;;1.70;1.60;;;;;;;;;;5011959;28;20224;-78
2024/02/22 13:53:15;;;;;;;2.80;1.50;;;;;;;;;;5018607;28;20236;-77
2024/02/22 13:55:44;;;;;;;1.77;1.60;;;;;;;;;;5004343;28;20221;-78
2024/02/22 13:58:10;;;;;;;1.57;1.47;;;;;;;;;;4993293;28;20221;-78
2024/02/22 14:00:35;;;;;;;1.63;1.53;;;;;;;;;;4993989;28;20239;-77
2024/02/22 14:03:01;;;;;;;2.07;1.50;;;;;;;;;;5009927;28;20237;-78
2024/02/22 14:05:30;;;;;;;1.43;1.33;;;;;;;;;;4991855;28;20224;-78
2024/02/22 14:07:57;;;;;;;1.67;1.40;;;;;;;;;;5007417;28;20243;-78
2024/02/22 14:10:27;;;;;;;2.00;1.20;;;;;;;;;;5004691;28;20232;-78
2024/02/22 14:12:55;;;;;;;1.30;1.20;;;;;;;;;;4984366;28;20617;-78
2024/02/22 14:15:23;;;;;;;1.60;1.10;;;;;;;;;;4973719;28;20280;-78
2024/02/22 14:17:49;;;;;;;1.80;1.20;;;;;;;;;;5007585;28;20268;-79
2024/02/22 14:20:18;;;;;;;1.37;1.00;;;;;;;;;;4992106;28;20240;-79
2024/02/22 14:22:45;;;;;;;1.17;1.00;;;;;;;;;;5006008;28;20703;-77
2024/02/22 14:25:11;;;;;;;1.37;1.20;;;;;;;;;;5007050;28;20220;-78
2024/02/22 14:27:37;;;;;;;1.00;0.90;;;;;;;;;;5005239;28;20228;-78
2024/02/22 14:30:05;;;;;;;1.10;1.00;;;;;;;;;;5009341;28;20268;-78
2024/02/22 14:32:33;;;;;;;1.03;0.90;;;;;;;;;;4987688;28;20271;-77
2024/02/22 14:34:59;;;;;;;2.00;0.93;;;;;;;;;;5009397;28;20205;-78
2024/02/22 14:37:24;;;;;;;0.90;0.90;;;;;;;;;;4976749;28;20229;-78